createdAt,value
2022-10-29T00:00:41.586Z,2.20
2022-10-29T00:03:44.995Z,2.72
2022-10-29T00:06:48.022Z,2.30
2022-10-29T00:09:49.997Z,2.45
2022-10-29T00:12:51.929Z,2.88
2022-10-29T00:15:53.945Z,2.80
2022-10-29T00:18:57.494Z,2.35
2022-10-29T00:21:59.458Z,2.40
2022-10-29T00:25:01.310Z,2.53
2022-10-29T00:28:03.369Z,1.90
2022-10-29T00:31:06.464Z,2.40
2022-10-29T00:34:09.902Z,2.70
2022-10-29T00:37:11.860Z,2.97
2022-10-29T00:40:13.906Z,2.97
2022-10-29T00:43:18.198Z,2.50
2022-10-29T00:46:27.678Z,2.72
2022-10-29T00:49:33.038Z,2.60
2022-10-29T00:52:41.179Z,2.70
2022-10-29T00:55:43.232Z,2.63
2022-10-29T00:58:46.135Z,2.28
2022-10-29T01:01:49.336Z,2.38
2022-10-29T01:04:53.780Z,2.70
2022-10-29T01:07:55.809Z,2.47
2022-10-29T01:11:05.156Z,2.35
2022-10-29T01:14:17.710Z,2.67
2022-10-29T01:17:28.605Z,2.53
2022-10-29T01:21:02.076Z,2.70
2022-10-29T01:24:40.252Z,2.63
2022-10-29T01:27:56.364Z,2.60
2022-10-29T01:31:09.094Z,2.05
2022-10-29T01:34:17.514Z,2.42
2022-10-29T01:37:28.435Z,2.23
2022-10-29T01:40:35.168Z,2.88
2022-10-29T01:43:41.673Z,2.15
2022-10-29T01:46:49.794Z,2.10
2022-10-29T01:49:57.281Z,2.50
2022-10-29T01:53:00.549Z,2.20
2022-10-29T01:56:02.516Z,2.17
2022-10-29T01:59:11.353Z,2.22
2022-10-29T02:02:30.432Z,2.25
2022-10-29T02:05:35.743Z,1.90
2022-10-29T02:08:46.037Z,1.83
2022-10-29T02:11:54.606Z,2.22
2022-10-29T02:15:02.714Z,2.97
2022-10-29T02:18:08.175Z,2.85
2022-10-29T02:21:10.206Z,2.88
2022-10-29T02:24:12.258Z,3.13
2022-10-29T02:27:14.288Z,2.47
2022-10-29T02:30:16.613Z,2.65
2022-10-29T02:33:19.940Z,2.45
2022-10-29T02:36:21.803Z,2.10
2022-10-29T02:39:23.891Z,2.10
2022-10-29T02:42:26.048Z,2.70
2022-10-29T02:45:27.978Z,2.42
2022-10-29T02:48:31.261Z,2.67
2022-10-29T02:51:33.255Z,2.60
2022-10-29T02:54:35.193Z,2.35
2022-10-29T02:57:37.133Z,2.38
2022-10-29T03:00:39.024Z,2.30
2022-10-29T03:03:42.444Z,2.30
2022-10-29T03:06:44.464Z,2.45
2022-10-29T03:09:46.412Z,1.88
2022-10-29T03:12:48.360Z,2.15
2022-10-29T03:15:50.252Z,1.88
2022-10-29T03:18:53.779Z,2.17
2022-10-29T03:21:55.870Z,1.98
2022-10-29T03:24:57.831Z,2.15
2022-10-29T03:27:59.768Z,2.10
2022-10-29T03:31:01.636Z,2.05
2022-10-29T03:34:04.933Z,2.30
2022-10-29T03:37:06.973Z,2.53
2022-10-29T03:40:09.648Z,2.35
2022-10-29T03:43:11.603Z,2.40
2022-10-29T03:46:13.684Z,2.50
2022-10-29T03:49:17.031Z,2.58
2022-10-29T03:52:19.062Z,2.50
2022-10-29T03:55:21.009Z,2.30
2022-10-29T03:58:23.506Z,2.40
2022-10-29T04:01:25.582Z,2.53
2022-10-29T04:04:28.991Z,2.63
2022-10-29T04:07:31.029Z,2.10
2022-10-29T04:10:33.147Z,1.95
2022-10-29T04:13:35.128Z,2.58
2022-10-29T04:16:37.330Z,2.42
2022-10-29T04:19:40.807Z,2.58
2022-10-29T04:27:45.470Z,2.53
2022-10-29T04:29:27.171Z,2.53
2022-10-29T04:32:29.084Z,2.33
2022-10-29T04:35:32.468Z,2.42
2022-10-29T04:38:34.443Z,2.33
2022-10-29T04:41:36.355Z,2.60
2022-10-29T04:44:38.294Z,2.40
2022-10-29T04:47:40.220Z,2.17
2022-10-29T04:50:43.589Z,2.42
2022-10-29T04:53:45.513Z,2.40
2022-10-29T04:56:47.444Z,2.50
2022-10-29T04:59:49.439Z,2.47
2022-10-29T05:02:52.284Z,2.78
2022-10-29T05:05:55.626Z,3.05
2022-10-29T05:08:57.849Z,2.60
2022-10-29T05:11:59.745Z,2.88
2022-10-29T05:15:02.053Z,2.70
2022-10-29T05:18:04.884Z,2.88
2022-10-29T05:21:08.191Z,2.40
2022-10-29T05:24:10.101Z,2.55
2022-10-29T05:27:12.012Z,3.15
2022-10-29T05:30:14.291Z,2.97
2022-10-29T05:33:18.446Z,3.00
2022-10-29T05:36:21.775Z,3.05
2022-10-29T05:39:23.750Z,2.45
2022-10-29T05:42:27.824Z,2.30
2022-10-29T05:45:29.765Z,2.60
2022-10-29T05:48:31.741Z,2.67
2022-10-29T05:51:35.177Z,2.80
2022-10-29T05:54:37.142Z,2.60
2022-10-29T05:57:39.183Z,3.20
2022-10-29T06:00:43.947Z,2.53
2022-10-29T06:03:46.315Z,3.20
2022-10-29T06:06:49.656Z,3.40
2022-10-29T06:09:51.600Z,3.70
2022-10-29T06:12:53.708Z,3.85
2022-10-29T06:15:58.366Z,3.83
2022-10-29T06:19:00.352Z,3.72
2022-10-29T06:22:04.912Z,3.22
2022-10-29T06:25:07.748Z,3.30
2022-10-29T06:28:12.162Z,2.97
2022-10-29T06:31:14.148Z,3.10
2022-10-29T06:34:16.110Z,3.35
2022-10-29T06:37:19.472Z,3.83
2022-10-29T06:40:21.407Z,3.70
2022-10-29T06:43:23.332Z,4.15
2022-10-29T06:46:25.329Z,4.07
2022-10-29T06:49:27.250Z,3.22
2022-10-29T06:52:30.581Z,3.78
2022-10-29T06:55:33.399Z,4.38
2022-10-29T06:58:35.359Z,3.80
2022-10-29T07:01:37.577Z,3.38
2022-10-29T07:04:39.520Z,3.80
2022-10-29T07:07:43.164Z,3.67
2022-10-29T07:10:45.129Z,4.25
2022-10-29T07:13:47.080Z,3.83
2022-10-29T07:16:49.024Z,4.10
2022-10-29T07:19:50.973Z,3.45
2022-10-29T07:22:54.338Z,3.40
2022-10-29T07:25:56.286Z,3.30
2022-10-29T07:28:58.438Z,3.58
2022-10-29T07:32:00.375Z,4.10
2022-10-29T07:35:02.363Z,3.53
2022-10-29T07:38:09.229Z,4.00
2022-10-29T07:41:12.725Z,3.90
2022-10-29T07:44:14.691Z,3.38
2022-10-29T07:47:16.600Z,3.15
2022-10-29T07:50:18.587Z,3.10
2022-10-29T07:53:22.306Z,3.00
2022-10-29T07:56:24.283Z,3.17
2022-10-29T07:59:26.250Z,3.63
2022-10-29T08:02:28.170Z,4.00
2022-10-29T08:05:30.871Z,4.13
2022-10-29T08:08:34.327Z,3.78
2022-10-29T08:11:36.267Z,3.47
2022-10-29T08:14:38.339Z,4.10
2022-10-29T08:17:40.273Z,3.67
2022-10-29T08:20:42.706Z,4.05
2022-10-29T08:23:46.101Z,4.30
2022-10-29T08:26:49.583Z,9.30
2022-10-29T08:29:51.555Z,7.13
2022-10-29T08:32:53.845Z,5.45
2022-10-29T08:35:56.138Z,4.85
2022-10-29T08:38:59.535Z,3.97
2022-10-29T08:42:15.117Z,4.05
2022-10-29T08:45:25.474Z,4.88
2022-10-29T08:48:36.415Z,3.97
2022-10-29T08:51:40.691Z,5.15
2022-10-29T08:54:47.738Z,4.40
2022-10-29T08:57:54.628Z,3.88
2022-10-29T09:00:58.818Z,3.83
2022-10-29T09:04:00.908Z,3.85
2022-10-29T09:07:25.977Z,4.05
2022-10-29T09:10:34.463Z,3.50
2022-10-29T09:13:49.121Z,2.83
2022-10-29T09:16:55.512Z,3.60
2022-10-29T09:20:12.462Z,4.15
2022-10-29T09:23:24.557Z,4.25
2022-10-29T09:26:31.261Z,3.97
2022-10-29T09:29:51.565Z,4.65
2022-10-29T09:32:59.827Z,4.18
2022-10-29T09:36:02.440Z,4.18
2022-10-29T09:39:12.396Z,5.05
2022-10-29T09:42:20.112Z,4.82
2022-10-29T09:45:30.291Z,14.77
2022-10-29T09:48:38.577Z,5.18
2022-10-29T09:51:46.386Z,3.35
2022-10-29T09:54:49.690Z,3.53
2022-10-29T09:57:54.179Z,3.60
2022-10-29T10:00:56.356Z,3.58
2022-10-29T10:04:04.222Z,3.70
2022-10-29T10:07:08.137Z,3.50
2022-10-29T10:10:21.134Z,3.40
2022-10-29T10:13:27.590Z,3.60
2022-10-29T10:16:33.363Z,3.95
2022-10-29T10:19:43.510Z,3.47
2022-10-29T10:22:47.280Z,4.82
2022-10-29T10:25:52.967Z,4.28
2022-10-29T10:29:09.654Z,4.68
2022-10-29T10:32:16.037Z,3.88
2022-10-29T10:35:26.673Z,3.85
2022-10-29T10:38:29.377Z,4.43
2022-10-29T10:41:35.342Z,3.40
2022-10-29T10:44:44.993Z,4.97
2022-10-29T10:47:50.172Z,3.80
2022-10-29T10:50:53.787Z,3.75
2022-10-29T10:53:55.887Z,4.20
2022-10-29T10:57:00.349Z,3.42
2022-10-29T11:00:06.881Z,3.50
2022-10-29T11:03:16.939Z,3.67
2022-10-29T11:06:22.985Z,4.00
2022-10-29T11:09:28.849Z,3.95
2022-10-29T11:12:34.990Z,4.00
2022-10-29T11:15:44.274Z,3.28
2022-10-29T11:22:11.808Z,3.70
2022-10-29T11:28:26.153Z,3.42
2022-10-29T11:31:40.656Z,3.17
2022-10-29T11:34:52.624Z,3.40
2022-10-29T11:38:01.678Z,3.40
2022-10-29T11:41:07.698Z,3.85
2022-10-29T11:44:12.071Z,3.50
2022-10-29T11:47:31.369Z,3.30
2022-10-29T11:50:42.695Z,3.45
2022-10-29T11:53:56.912Z,3.40
2022-10-29T11:57:03.830Z,3.72
2022-10-29T12:00:14.061Z,3.63
2022-10-29T12:03:44.880Z,3.67
2022-10-29T12:06:57.390Z,3.92
2022-10-29T12:10:15.331Z,4.45
2022-10-29T12:13:32.838Z,4.13
2022-10-29T12:16:47.544Z,4.10
2022-10-29T12:19:58.111Z,3.90
2022-10-29T12:23:14.483Z,4.05
2022-10-29T12:26:26.269Z,4.00
2022-10-29T12:29:37.996Z,3.83
2022-10-29T12:32:51.908Z,4.45
2022-10-29T12:39:18.986Z,4.47
2022-10-29T12:42:24.421Z,4.97
2022-10-29T12:45:39.926Z,4.32
2022-10-29T12:49:05.872Z,4.10
2022-10-29T12:52:16.453Z,4.28
2022-10-29T12:55:19.325Z,4.07
2022-10-29T12:58:50.269Z,4.43
2022-10-29T13:05:37.695Z,4.50
2022-10-29T13:08:41.040Z,4.72
2022-10-29T13:11:48.645Z,4.28
2022-10-29T13:14:55.607Z,4.55
2022-10-29T13:18:04.897Z,4.07
2022-10-29T13:21:06.882Z,4.00
2022-10-29T13:24:16.700Z,4.40
2022-10-29T13:27:34.515Z,4.90
2022-10-29T13:30:37.426Z,4.65
2022-10-29T13:33:49.532Z,4.05
2022-10-29T13:36:51.496Z,4.93
2022-10-29T13:40:26.723Z,4.70
2022-10-29T13:43:31.707Z,4.63
2022-10-29T13:46:47.278Z,4.28
2022-10-29T13:49:50.564Z,4.30
2022-10-29T13:52:56.779Z,4.40
2022-10-29T13:55:59.778Z,4.60
2022-10-29T13:59:08.517Z,4.45
2022-10-29T14:02:28.751Z,4.82
2022-10-29T14:05:35.017Z,5.15
2022-10-29T14:08:43.845Z,4.95
2022-10-29T14:11:55.729Z,4.53
2022-10-29T14:15:04.219Z,5.40
2022-10-29T14:18:18.726Z,6.50
2022-10-29T14:21:23.788Z,5.85
2022-10-29T14:24:25.724Z,5.70
2022-10-29T14:27:27.851Z,5.00
2022-10-29T14:30:31.292Z,5.50
2022-10-29T14:33:34.976Z,5.10
2022-10-29T14:36:40.994Z,5.10
2022-10-29T14:39:57.952Z,5.25
2022-10-29T14:43:01.419Z,5.90
2022-10-29T14:46:17.317Z,5.18
2022-10-29T14:49:21.564Z,5.00
2022-10-29T14:52:29.653Z,4.90
2022-10-29T14:55:35.264Z,4.68
2022-10-29T14:58:38.632Z,4.82
2022-10-29T15:01:56.742Z,4.90
2022-10-29T15:05:07.482Z,5.85
2022-10-29T15:08:16.924Z,4.70
2022-10-29T15:11:36.731Z,5.47
2022-10-29T15:17:53.804Z,4.85
2022-10-29T15:20:56.388Z,4.85
2022-10-29T15:24:02.765Z,5.60
2022-10-29T15:27:04.941Z,5.30
2022-10-29T15:30:07.852Z,4.95
2022-10-29T15:33:18.191Z,4.70
2022-10-29T15:36:20.396Z,5.05
2022-10-29T15:39:24.963Z,4.63
2022-10-29T15:42:28.596Z,4.63
2022-10-29T15:45:30.629Z,4.68
2022-10-29T15:48:36.867Z,5.38
2022-10-29T15:51:38.923Z,5.72
2022-10-29T15:54:40.849Z,4.68
2022-10-29T15:57:44.360Z,4.28
2022-10-29T16:00:47.580Z,5.85
2022-10-29T16:03:51.106Z,5.13
2022-10-29T16:06:53.125Z,4.90
2022-10-29T16:09:57.971Z,4.05
2022-10-29T16:13:00.297Z,3.83
2022-10-29T16:16:02.465Z,4.80
2022-10-29T16:19:06.121Z,4.63
2022-10-29T16:22:13.394Z,4.57
2022-10-29T16:25:27.175Z,4.80
2022-10-29T16:28:29.107Z,5.25
2022-10-29T16:31:31.105Z,4.72
2022-10-29T16:34:36.598Z,4.95
2022-10-29T16:37:38.791Z,5.50
2022-10-29T16:40:41.032Z,28.17
2022-10-29T16:43:43.604Z,14.80
2022-10-29T16:46:45.600Z,8.23
2022-10-29T16:49:49.136Z,5.50
2022-10-29T16:52:57.128Z,8.93
2022-10-29T16:55:59.105Z,8.30
2022-10-29T16:59:02.182Z,32.55
2022-10-29T17:02:04.658Z,29.83
2022-10-29T17:05:09.002Z,18.95
2022-10-29T17:08:11.586Z,15.57
2022-10-29T17:11:13.524Z,12.80
2022-10-29T17:14:15.875Z,10.40
2022-10-29T17:17:18.182Z,11.10
2022-10-29T17:20:21.731Z,14.27
2022-10-29T17:23:24.178Z,28.08
2022-10-29T17:26:27.636Z,28.58
2022-10-29T17:29:35.193Z,14.85
2022-10-29T17:32:38.661Z,9.38
2022-10-29T17:35:42.506Z,21.92
2022-10-29T17:38:44.694Z,11.20
2022-10-29T17:41:47.268Z,11.60
2022-10-29T17:44:49.934Z,15.70
2022-10-29T17:47:55.503Z,9.48
2022-10-29T17:51:01.275Z,10.35
2022-10-29T17:54:03.893Z,10.32
2022-10-29T17:57:06.319Z,15.38
2022-10-29T18:00:09.824Z,11.75
2022-10-29T18:03:12.974Z,11.15
2022-10-29T18:06:17.399Z,9.48
2022-10-29T18:09:21.195Z,7.90
2022-10-29T18:12:23.444Z,66.03
2022-10-29T18:15:25.505Z,120.55
2022-10-29T18:18:27.998Z,216.35
2022-10-29T18:21:33.146Z,154.20
2022-10-29T18:24:35.583Z,80.47
2022-10-29T18:27:39.288Z,31.63
2022-10-29T18:30:41.242Z,8.30
2022-10-29T18:33:43.934Z,5.95
2022-10-29T18:36:48.393Z,4.75
2022-10-29T18:39:50.382Z,5.18
2022-10-29T18:42:53.031Z,4.25
2022-10-29T18:45:56.935Z,4.32
2022-10-29T18:49:00.644Z,4.38
2022-10-29T18:52:05.465Z,4.00
2022-10-29T18:55:08.567Z,4.57
2022-10-29T18:58:10.844Z,3.95
2022-10-29T19:01:14.850Z,3.92
2022-10-29T19:04:17.435Z,4.10
2022-10-29T19:07:21.298Z,3.42
2022-10-29T19:10:23.344Z,3.50
2022-10-29T19:13:25.589Z,3.20
2022-10-29T19:16:29.546Z,3.45
2022-10-29T19:19:32.054Z,3.85
2022-10-29T19:22:35.713Z,4.18
2022-10-29T19:25:40.293Z,4.47
2022-10-29T19:28:43.160Z,4.38
2022-10-29T19:31:46.297Z,3.70
2022-10-29T19:34:48.594Z,3.22
2022-10-29T19:37:52.793Z,3.70
2022-10-29T19:40:55.807Z,3.70
2022-10-29T19:43:59.473Z,3.90
2022-10-29T19:47:02.196Z,4.47
2022-10-29T19:50:05.086Z,3.83
2022-10-29T19:53:09.251Z,3.65
2022-10-29T19:56:12.717Z,4.05
2022-10-29T19:59:16.738Z,3.78
2022-10-29T20:02:18.866Z,3.53
2022-10-29T20:05:20.882Z,3.63
2022-10-29T20:08:24.738Z,3.88
2022-10-29T20:11:27.344Z,3.40
2022-10-29T20:14:29.651Z,3.85
2022-10-29T20:17:32.378Z,5.00
2022-10-29T20:20:34.503Z,4.30
2022-10-29T20:23:38.153Z,5.07
2022-10-29T20:26:40.739Z,4.30
2022-10-29T20:29:43.158Z,4.53
2022-10-29T20:32:45.873Z,4.15
2022-10-29T20:35:47.983Z,4.88
2022-10-29T20:38:52.660Z,4.57
2022-10-29T20:41:54.757Z,4.30
2022-10-29T20:44:57.464Z,4.22
2022-10-29T20:48:02.221Z,4.72
2022-10-29T20:51:04.587Z,4.95
2022-10-29T20:54:08.122Z,5.22
2022-10-29T20:57:10.444Z,4.63
2022-10-29T21:00:13.377Z,5.28
2022-10-29T21:03:16.580Z,4.57
2022-10-29T21:06:19.286Z,4.95
2022-10-29T21:09:22.585Z,4.75
2022-10-29T21:12:24.535Z,5.05
2022-10-29T21:15:26.524Z,4.47
2022-10-29T21:18:28.469Z,4.10
2022-10-29T21:21:30.628Z,4.18
2022-10-29T21:24:35.416Z,3.60
2022-10-29T21:27:37.466Z,3.72
2022-10-29T21:30:39.444Z,3.83
2022-10-29T21:33:41.809Z,3.58
2022-10-29T21:36:43.751Z,4.93
2022-10-29T21:39:47.132Z,4.18
2022-10-29T21:42:49.063Z,3.90
2022-10-29T21:45:51.845Z,4.38
2022-10-29T21:48:55.013Z,4.72
2022-10-29T21:51:56.934Z,3.70
2022-10-29T21:55:00.256Z,3.60
2022-10-29T21:58:02.937Z,4.00
2022-10-29T22:01:07.549Z,3.65
2022-10-29T22:04:09.556Z,3.85
2022-10-29T22:07:11.453Z,4.18
2022-10-29T22:10:14.894Z,3.95
2022-10-29T22:13:16.972Z,3.53
2022-10-29T22:16:19.017Z,3.97
2022-10-29T22:19:20.885Z,4.00
2022-10-29T22:22:23.014Z,4.28
2022-10-29T22:25:26.272Z,4.05
2022-10-29T22:28:28.282Z,4.07
2022-10-29T22:31:30.290Z,4.38
2022-10-29T22:34:32.251Z,3.90
2022-10-29T22:37:34.097Z,3.65
2022-10-29T22:40:40.977Z,4.25
2022-10-29T22:43:43.884Z,3.95
2022-10-29T22:46:45.988Z,4.30
2022-10-29T22:49:47.910Z,3.65
2022-10-29T22:52:49.936Z,4.30
2022-10-29T22:55:53.747Z,4.10
2022-10-29T22:58:56.226Z,3.53
2022-10-29T23:01:58.284Z,4.00
2022-10-29T23:05:00.318Z,3.47
2022-10-29T23:08:02.237Z,3.22
2022-10-29T23:11:07.208Z,3.50
2022-10-29T23:14:09.154Z,3.30
2022-10-29T23:17:11.055Z,3.65
2022-10-29T23:20:13.027Z,3.25
2022-10-29T23:23:14.912Z,3.75
2022-10-29T23:26:19.469Z,4.22
2022-10-29T23:29:21.460Z,4.80
2022-10-29T23:32:23.415Z,4.30
2022-10-29T23:35:25.440Z,4.22
2022-10-29T23:38:27.426Z,4.05
2022-10-29T23:41:31.323Z,3.75
2022-10-29T23:44:33.219Z,3.83
2022-10-29T23:47:35.256Z,3.80
2022-10-29T23:50:37.870Z,3.85
2022-10-29T23:53:41.007Z,3.63
2022-10-29T23:56:44.299Z,4.13
2022-10-29T23:59:46.195Z,3.88
